sensor_id;sensor_type;location;lat;lon;timestamp;P1;durP1;ratioP1;P2;durP2;ratioP2
61709;SDS011;47633;51.494;5.386;2023-02-08T00:00:19;6.35;;;4.68;;
61709;SDS011;47633;51.494;5.386;2023-02-08T00:02:46;6.78;;;5.00;;
61709;SDS011;47633;51.494;5.386;2023-02-08T00:05:11;7.90;;;4.85;;
61709;SDS011;47633;51.494;5.386;2023-02-08T00:07:36;8.60;;;5.10;;
61709;SDS011;47633;51.494;5.386;2023-02-08T00:10:02;7.72;;;5.05;;
61709;SDS011;47633;51.494;5.386;2023-02-08T00:12:29;11.60;;;4.82;;
61709;SDS011;47633;51.494;5.386;2023-02-08T00:14:54;8.82;;;5.13;;
61709;SDS011;47633;51.494;5.386;2023-02-08T00:17:20;7.78;;;4.68;;
61709;SDS011;47633;51.494;5.386;2023-02-08T00:19:46;7.60;;;4.53;;
61709;SDS011;47633;51.494;5.386;2023-02-08T00:22:11;7.85;;;4.80;;
61709;SDS011;47633;51.494;5.386;2023-02-08T00:24:37;6.33;;;4.20;;
61709;SDS011;47633;51.494;5.386;2023-02-08T00:27:02;7.55;;;4.55;;
61709;SDS011;47633;51.494;5.386;2023-02-08T00:29:27;7.57;;;4.95;;
61709;SDS011;47633;51.494;5.386;2023-02-08T00:31:53;8.15;;;4.85;;
61709;SDS011;47633;51.494;5.386;2023-02-08T00:34:18;6.00;;;4.32;;
61709;SDS011;47633;51.494;5.386;2023-02-08T00:36:43;8.05;;;5.25;;
61709;SDS011;47633;51.494;5.386;2023-02-08T00:39:09;8.18;;;5.00;;
61709;SDS011;47633;51.494;5.386;2023-02-08T00:41:34;7.95;;;4.70;;
61709;SDS011;47633;51.494;5.386;2023-02-08T00:43:59;7.53;;;4.70;;
61709;SDS011;47633;51.494;5.386;2023-02-08T00:46:24;6.22;;;4.35;;
61709;SDS011;47633;51.494;5.386;2023-02-08T00:48:50;7.22;;;4.32;;
61709;SDS011;47633;51.494;5.386;2023-02-08T00:51:15;6.93;;;4.65;;
61709;SDS011;47633;51.494;5.386;2023-02-08T00:53:42;7.80;;;4.47;;
61709;SDS011;47633;51.494;5.386;2023-02-08T00:56:09;5.90;;;4.22;;
61709;SDS011;47633;51.494;5.386;2023-02-08T00:58:36;8.27;;;4.70;;
61709;SDS011;47633;51.494;5.386;2023-02-08T01:01:02;7.32;;;4.60;;
61709;SDS011;47633;51.494;5.386;2023-02-08T01:03:28;7.00;;;4.78;;
61709;SDS011;47633;51.494;5.386;2023-02-08T01:05:58;7.85;;;5.03;;
61709;SDS011;47633;51.494;5.386;2023-02-08T01:08:25;9.20;;;4.57;;
61709;SDS011;47633;51.494;5.386;2023-02-08T01:10:50;8.77;;;4.70;;
61709;SDS011;47633;51.494;5.386;2023-02-08T01:13:15;7.00;;;4.20;;
61709;SDS011;47633;51.494;5.386;2023-02-08T01:15:41;7.47;;;4.63;;
61709;SDS011;47633;51.494;5.386;2023-02-08T01:18:06;6.72;;;4.40;;
61709;SDS011;47633;51.494;5.386;2023-02-08T01:20:33;7.38;;;4.68;;
61709;SDS011;47633;51.494;5.386;2023-02-08T01:23:00;6.78;;;4.20;;
61709;SDS011;47633;51.494;5.386;2023-02-08T01:25:26;7.60;;;4.50;;
61709;SDS011;47633;51.494;5.386;2023-02-08T01:27:51;7.68;;;4.45;;
61709;SDS011;47633;51.494;5.386;2023-02-08T01:30:19;7.03;;;4.60;;
61709;SDS011;47633;51.494;5.386;2023-02-08T01:32:44;7.35;;;4.70;;
61709;SDS011;47633;51.494;5.386;2023-02-08T01:35:10;6.00;;;4.07;;
61709;SDS011;47633;51.494;5.386;2023-02-08T01:37:35;6.43;;;4.45;;
61709;SDS011;47633;51.494;5.386;2023-02-08T01:40:00;7.18;;;4.40;;
61709;SDS011;47633;51.494;5.386;2023-02-08T01:42:25;6.80;;;4.22;;
61709;SDS011;47633;51.494;5.386;2023-02-08T01:47:44;7.50;;;4.53;;
61709;SDS011;47633;51.494;5.386;2023-02-08T01:50:13;6.40;;;4.40;;
61709;SDS011;47633;51.494;5.386;2023-02-08T01:52:39;7.80;;;4.25;;
61709;SDS011;47633;51.494;5.386;2023-02-08T01:55:08;7.20;;;4.60;;
61709;SDS011;47633;51.494;5.386;2023-02-08T01:57:39;8.27;;;4.35;;
61709;SDS011;47633;51.494;5.386;2023-02-08T02:00:13;6.72;;;4.40;;
61709;SDS011;47633;51.494;5.386;2023-02-08T02:02:41;6.97;;;4.35;;
61709;SDS011;47633;51.494;5.386;2023-02-08T02:05:09;7.32;;;4.15;;
61709;SDS011;47633;51.494;5.386;2023-02-08T02:07:35;6.60;;;4.38;;
61709;SDS011;47633;51.494;5.386;2023-02-08T02:10:04;8.68;;;4.35;;
61709;SDS011;47633;51.494;5.386;2023-02-08T02:12:34;7.25;;;4.95;;
61709;SDS011;47633;51.494;5.386;2023-02-08T02:15:01;7.30;;;4.63;;
61709;SDS011;47633;51.494;5.386;2023-02-08T02:17:27;6.45;;;4.05;;
61709;SDS011;47633;51.494;5.386;2023-02-08T02:28:32;8.10;;;4.05;;
61709;SDS011;47633;51.494;5.386;2023-02-08T02:37:10;7.15;;;4.70;;
61709;SDS011;47633;51.494;5.386;2023-02-08T02:42:47;6.77;;;4.10;;
61709;SDS011;47633;51.494;5.386;2023-02-08T02:45:47;6.43;;;4.15;;
61709;SDS011;47633;51.494;5.386;2023-02-08T02:48:31;7.82;;;4.30;;
61709;SDS011;47633;51.494;5.386;2023-02-08T02:51:17;6.38;;;4.10;;
61709;SDS011;47633;51.494;5.386;2023-02-08T02:56:32;7.15;;;4.25;;
61709;SDS011;47633;51.494;5.386;2023-02-08T02:59:05;7.13;;;4.07;;
61709;SDS011;47633;51.494;5.386;2023-02-08T03:01:32;7.03;;;4.35;;
61709;SDS011;47633;51.494;5.386;2023-02-08T03:03:58;8.60;;;4.88;;
61709;SDS011;47633;51.494;5.386;2023-02-08T03:06:38;7.40;;;4.72;;
61709;SDS011;47633;51.494;5.386;2023-02-08T03:09:46;7.13;;;4.50;;
61709;SDS011;47633;51.494;5.386;2023-02-08T03:15:31;6.65;;;4.50;;
61709;SDS011;47633;51.494;5.386;2023-02-08T03:26:18;7.87;;;4.00;;
61709;SDS011;47633;51.494;5.386;2023-02-08T03:29:02;7.18;;;4.82;;
61709;SDS011;47633;51.494;5.386;2023-02-08T03:31:46;6.90;;;4.40;;
61709;SDS011;47633;51.494;5.386;2023-02-08T03:37:12;6.93;;;4.05;;
61709;SDS011;47633;51.494;5.386;2023-02-08T03:39:44;9.60;;;4.77;;
61709;SDS011;47633;51.494;5.386;2023-02-08T03:42:14;8.10;;;4.30;;
61709;SDS011;47633;51.494;5.386;2023-02-08T03:44:48;7.78;;;4.25;;
61709;SDS011;47633;51.494;5.386;2023-02-08T03:47:20;7.70;;;4.07;;
61709;SDS011;47633;51.494;5.386;2023-02-08T03:49:49;8.70;;;4.25;;
61709;SDS011;47633;51.494;5.386;2023-02-08T03:52:16;8.05;;;5.25;;
61709;SDS011;47633;51.494;5.386;2023-02-08T03:54:45;7.43;;;4.43;;
61709;SDS011;47633;51.494;5.386;2023-02-08T03:59:48;9.93;;;4.32;;
61709;SDS011;47633;51.494;5.386;2023-02-08T04:02:20;7.18;;;4.43;;
61709;SDS011;47633;51.494;5.386;2023-02-08T04:04:48;6.65;;;3.85;;
61709;SDS011;47633;51.494;5.386;2023-02-08T04:07:16;7.15;;;4.10;;
61709;SDS011;47633;51.494;5.386;2023-02-08T04:09:42;6.82;;;4.28;;
61709;SDS011;47633;51.494;5.386;2023-02-08T04:12:07;6.82;;;4.47;;
61709;SDS011;47633;51.494;5.386;2023-02-08T04:14:33;9.13;;;4.50;;
61709;SDS011;47633;51.494;5.386;2023-02-08T04:16:58;7.75;;;4.03;;
61709;SDS011;47633;51.494;5.386;2023-02-08T04:19:23;6.47;;;3.92;;
61709;SDS011;47633;51.494;5.386;2023-02-08T04:21:49;6.80;;;4.35;;
61709;SDS011;47633;51.494;5.386;2023-02-08T04:24:14;5.88;;;3.85;;
61709;SDS011;47633;51.494;5.386;2023-02-08T04:26:39;8.07;;;4.32;;
61709;SDS011;47633;51.494;5.386;2023-02-08T04:29:05;7.88;;;4.07;;
61709;SDS011;47633;51.494;5.386;2023-02-08T04:31:30;8.67;;;4.80;;
61709;SDS011;47633;51.494;5.386;2023-02-08T04:33:55;7.35;;;4.53;;
61709;SDS011;47633;51.494;5.386;2023-02-08T04:36:20;7.13;;;4.18;;
61709;SDS011;47633;51.494;5.386;2023-02-08T04:38:46;7.53;;;4.22;;
61709;SDS011;47633;51.494;5.386;2023-02-08T04:41:11;8.02;;;3.60;;
61709;SDS011;47633;51.494;5.386;2023-02-08T04:43:36;7.05;;;3.90;;
61709;SDS011;47633;51.494;5.386;2023-02-08T04:46:02;8.45;;;4.15;;
61709;SDS011;47633;51.494;5.386;2023-02-08T04:48:27;6.53;;;4.22;;
61709;SDS011;47633;51.494;5.386;2023-02-08T04:50:54;7.43;;;4.22;;
61709;SDS011;47633;51.494;5.386;2023-02-08T04:53:20;6.65;;;4.13;;
61709;SDS011;47633;51.494;5.386;2023-02-08T04:55:46;6.78;;;4.50;;
61709;SDS011;47633;51.494;5.386;2023-02-08T04:58:11;7.03;;;4.10;;
61709;SDS011;47633;51.494;5.386;2023-02-08T05:00:36;7.57;;;4.72;;
61709;SDS011;47633;51.494;5.386;2023-02-08T05:03:01;6.40;;;3.92;;
61709;SDS011;47633;51.494;5.386;2023-02-08T05:05:27;6.03;;;4.05;;
61709;SDS011;47633;51.494;5.386;2023-02-08T05:07:52;5.95;;;3.60;;
61709;SDS011;47633;51.494;5.386;2023-02-08T05:10:18;6.97;;;4.30;;
61709;SDS011;47633;51.494;5.386;2023-02-08T05:12:43;7.82;;;4.10;;
61709;SDS011;47633;51.494;5.386;2023-02-08T05:15:09;7.50;;;4.38;;
61709;SDS011;47633;51.494;5.386;2023-02-08T05:17:35;8.15;;;4.10;;
61709;SDS011;47633;51.494;5.386;2023-02-08T05:20:00;8.40;;;4.35;;
61709;SDS011;47633;51.494;5.386;2023-02-08T05:22:26;7.32;;;3.88;;
61709;SDS011;47633;51.494;5.386;2023-02-08T05:24:51;7.53;;;4.30;;
61709;SDS011;47633;51.494;5.386;2023-02-08T05:27:16;8.18;;;4.13;;
61709;SDS011;47633;51.494;5.386;2023-02-08T05:29:42;6.40;;;3.97;;
61709;SDS011;47633;51.494;5.386;2023-02-08T05:32:07;7.18;;;3.80;;
61709;SDS011;47633;51.494;5.386;2023-02-08T05:34:32;7.18;;;4.07;;
61709;SDS011;47633;51.494;5.386;2023-02-08T05:36:58;8.75;;;4.13;;
61709;SDS011;47633;51.494;5.386;2023-02-08T05:39:23;7.13;;;3.70;;
61709;SDS011;47633;51.494;5.386;2023-02-08T05:41:48;6.50;;;3.53;;
61709;SDS011;47633;51.494;5.386;2023-02-08T05:44:13;5.97;;;3.88;;
61709;SDS011;47633;51.494;5.386;2023-02-08T05:46:39;7.17;;;3.40;;
61709;SDS011;47633;51.494;5.386;2023-02-08T05:49:04;7.95;;;3.60;;
61709;SDS011;47633;51.494;5.386;2023-02-08T05:51:29;6.07;;;3.55;;
61709;SDS011;47633;51.494;5.386;2023-02-08T05:53:54;6.20;;;3.30;;
61709;SDS011;47633;51.494;5.386;2023-02-08T05:56:20;6.75;;;3.40;;
61709;SDS011;47633;51.494;5.386;2023-02-08T05:58:45;6.78;;;3.10;;
61709;SDS011;47633;51.494;5.386;2023-02-08T06:01:11;6.33;;;3.30;;
61709;SDS011;47633;51.494;5.386;2023-02-08T06:03:37;6.00;;;3.70;;
61709;SDS011;47633;51.494;5.386;2023-02-08T06:06:04;5.63;;;3.00;;
61709;SDS011;47633;51.494;5.386;2023-02-08T06:08:30;4.72;;;2.95;;
61709;SDS011;47633;51.494;5.386;2023-02-08T06:10:56;6.22;;;3.42;;
61709;SDS011;47633;51.494;5.386;2023-02-08T06:13:21;6.70;;;3.42;;
61709;SDS011;47633;51.494;5.386;2023-02-08T06:15:46;6.80;;;3.65;;
61709;SDS011;47633;51.494;5.386;2023-02-08T06:18:11;7.00;;;3.60;;
61709;SDS011;47633;51.494;5.386;2023-02-08T06:20:37;5.90;;;3.33;;
61709;SDS011;47633;51.494;5.386;2023-02-08T06:23:03;5.95;;;3.50;;
61709;SDS011;47633;51.494;5.386;2023-02-08T06:25:28;6.45;;;3.58;;
61709;SDS011;47633;51.494;5.386;2023-02-08T06:27:54;6.35;;;3.60;;
61709;SDS011;47633;51.494;5.386;2023-02-08T06:30:19;5.80;;;3.40;;
61709;SDS011;47633;51.494;5.386;2023-02-08T06:32:44;5.55;;;3.30;;
61709;SDS011;47633;51.494;5.386;2023-02-08T06:35:10;7.07;;;3.53;;
61709;SDS011;47633;51.494;5.386;2023-02-08T06:37:35;7.38;;;3.70;;
61709;SDS011;47633;51.494;5.386;2023-02-08T06:40:00;7.50;;;3.10;;
61709;SDS011;47633;51.494;5.386;2023-02-08T06:42:26;6.50;;;3.42;;
61709;SDS011;47633;51.494;5.386;2023-02-08T06:44:52;6.40;;;3.15;;
61709;SDS011;47633;51.494;5.386;2023-02-08T06:47:20;7.47;;;3.30;;
61709;SDS011;47633;51.494;5.386;2023-02-08T06:49:45;6.03;;;3.30;;
61709;SDS011;47633;51.494;5.386;2023-02-08T06:52:11;7.10;;;3.88;;
61709;SDS011;47633;51.494;5.386;2023-02-08T06:54:36;6.28;;;3.30;;
61709;SDS011;47633;51.494;5.386;2023-02-08T06:57:01;5.13;;;3.47;;
61709;SDS011;47633;51.494;5.386;2023-02-08T06:59:27;5.75;;;3.28;;
61709;SDS011;47633;51.494;5.386;2023-02-08T07:01:52;5.80;;;3.58;;
61709;SDS011;47633;51.494;5.386;2023-02-08T07:04:17;6.05;;;3.42;;
61709;SDS011;47633;51.494;5.386;2023-02-08T07:06:43;5.85;;;3.28;;
61709;SDS011;47633;51.494;5.386;2023-02-08T07:09:08;6.13;;;3.67;;
61709;SDS011;47633;51.494;5.386;2023-02-08T07:11:33;7.45;;;3.60;;
61709;SDS011;47633;51.494;5.386;2023-02-08T07:13:58;5.65;;;3.47;;
61709;SDS011;47633;51.494;5.386;2023-02-08T07:16:24;7.30;;;3.78;;
61709;SDS011;47633;51.494;5.386;2023-02-08T07:18:49;6.63;;;3.40;;
61709;SDS011;47633;51.494;5.386;2023-02-08T07:21:15;5.95;;;3.17;;
61709;SDS011;47633;51.494;5.386;2023-02-08T07:23:40;9.07;;;3.78;;
61709;SDS011;47633;51.494;5.386;2023-02-08T07:26:07;7.20;;;3.70;;
61709;SDS011;47633;51.494;5.386;2023-02-08T07:28:34;6.28;;;3.47;;
61709;SDS011;47633;51.494;5.386;2023-02-08T07:31:03;5.95;;;3.13;;
61709;SDS011;47633;51.494;5.386;2023-02-08T07:33:32;5.80;;;3.58;;
61709;SDS011;47633;51.494;5.386;2023-02-08T07:35:58;7.05;;;3.33;;
61709;SDS011;47633;51.494;5.386;2023-02-08T07:38:23;6.88;;;3.38;;
61709;SDS011;47633;51.494;5.386;2023-02-08T07:40:48;8.40;;;3.80;;
61709;SDS011;47633;51.494;5.386;2023-02-08T07:43:13;5.97;;;3.80;;
61709;SDS011;47633;51.494;5.386;2023-02-08T07:45:39;7.38;;;3.67;;
61709;SDS011;47633;51.494;5.386;2023-02-08T07:48:05;5.75;;;3.72;;
61709;SDS011;47633;51.494;5.386;2023-02-08T07:50:30;6.60;;;3.70;;
61709;SDS011;47633;51.494;5.386;2023-02-08T07:52:55;7.85;;;3.72;;
61709;SDS011;47633;51.494;5.386;2023-02-08T07:55:21;6.72;;;3.70;;
61709;SDS011;47633;51.494;5.386;2023-02-08T07:57:47;7.45;;;4.03;;
61709;SDS011;47633;51.494;5.386;2023-02-08T08:00:13;6.15;;;3.35;;
61709;SDS011;47633;51.494;5.386;2023-02-08T08:02:41;6.45;;;3.63;;
61709;SDS011;47633;51.494;5.386;2023-02-08T08:05:07;6.88;;;3.33;;
61709;SDS011;47633;51.494;5.386;2023-02-08T08:07:33;7.35;;;3.55;;
61709;SDS011;47633;51.494;5.386;2023-02-08T08:09:58;6.45;;;3.50;;
61709;SDS011;47633;51.494;5.386;2023-02-08T08:12:23;7.38;;;3.42;;
61709;SDS011;47633;51.494;5.386;2023-02-08T08:14:52;6.32;;;3.63;;
61709;SDS011;47633;51.494;5.386;2023-02-08T08:17:17;7.78;;;3.95;;
61709;SDS011;47633;51.494;5.386;2023-02-08T08:19:43;7.13;;;3.47;;
61709;SDS011;47633;51.494;5.386;2023-02-08T08:22:09;6.78;;;3.75;;
61709;SDS011;47633;51.494;5.386;2023-02-08T08:24:34;6.47;;;3.33;;
61709;SDS011;47633;51.494;5.386;2023-02-08T08:27:01;7.65;;;3.65;;
61709;SDS011;47633;51.494;5.386;2023-02-08T08:29:27;8.25;;;3.67;;
61709;SDS011;47633;51.494;5.386;2023-02-08T08:31:53;7.75;;;3.67;;
61709;SDS011;47633;51.494;5.386;2023-02-08T08:34:18;7.22;;;3.38;;
61709;SDS011;47633;51.494;5.386;2023-02-08T08:36:43;6.07;;;3.92;;
61709;SDS011;47633;51.494;5.386;2023-02-08T08:39:09;6.10;;;3.10;;
61709;SDS011;47633;51.494;5.386;2023-02-08T08:41:34;7.20;;;3.47;;
61709;SDS011;47633;51.494;5.386;2023-02-08T08:44:00;7.13;;;3.65;;
61709;SDS011;47633;51.494;5.386;2023-02-08T08:46:26;5.90;;;3.33;;
61709;SDS011;47633;51.494;5.386;2023-02-08T08:48:52;7.35;;;3.42;;
61709;SDS011;47633;51.494;5.386;2023-02-08T08:51:17;7.78;;;4.15;;
61709;SDS011;47633;51.494;5.386;2023-02-08T08:53:42;5.72;;;3.70;;
61709;SDS011;47633;51.494;5.386;2023-02-08T08:56:08;5.53;;;3.30;;
61709;SDS011;47633;51.494;5.386;2023-02-08T08:58:33;5.63;;;3.03;;
61709;SDS011;47633;51.494;5.386;2023-02-08T09:00:58;8.63;;;3.45;;
61709;SDS011;47633;51.494;5.386;2023-02-08T09:03:25;5.78;;;2.90;;
61709;SDS011;47633;51.494;5.386;2023-02-08T09:05:51;5.30;;;2.80;;
61709;SDS011;47633;51.494;5.386;2023-02-08T09:08:16;6.70;;;2.63;;
61709;SDS011;47633;51.494;5.386;2023-02-08T09:10:42;6.05;;;2.88;;
61709;SDS011;47633;51.494;5.386;2023-02-08T09:13:07;5.20;;;2.38;;
61709;SDS011;47633;51.494;5.386;2023-02-08T09:15:32;6.15;;;2.97;;
61709;SDS011;47633;51.494;5.386;2023-02-08T09:17:58;6.47;;;3.17;;
61709;SDS011;47633;51.494;5.386;2023-02-08T09:20:23;6.22;;;3.38;;
61709;SDS011;47633;51.494;5.386;2023-02-08T09:22:48;4.82;;;2.65;;
61709;SDS011;47633;51.494;5.386;2023-02-08T09:25:14;5.75;;;3.00;;
61709;SDS011;47633;51.494;5.386;2023-02-08T09:27:39;5.50;;;3.15;;
61709;SDS011;47633;51.494;5.386;2023-02-08T09:30:05;7.07;;;2.88;;
61709;SDS011;47633;51.494;5.386;2023-02-08T09:32:31;4.90;;;2.83;;
61709;SDS011;47633;51.494;5.386;2023-02-08T09:35:01;5.20;;;3.10;;
61709;SDS011;47633;51.494;5.386;2023-02-08T09:37:27;6.35;;;3.40;;
61709;SDS011;47633;51.494;5.386;2023-02-08T09:39:53;7.05;;;2.95;;
61709;SDS011;47633;51.494;5.386;2023-02-08T09:50:55;5.03;;;2.70;;
61709;SDS011;47633;51.494;5.386;2023-02-08T09:53:35;6.78;;;3.10;;
61709;SDS011;47633;51.494;5.386;2023-02-08T09:56:04;5.57;;;3.10;;
61709;SDS011;47633;51.494;5.386;2023-02-08T09:58:43;5.68;;;3.03;;
61709;SDS011;47633;51.494;5.386;2023-02-08T10:04:04;5.50;;;2.88;;
61709;SDS011;47633;51.494;5.386;2023-02-08T10:06:36;6.07;;;2.67;;
61709;SDS011;47633;51.494;5.386;2023-02-08T10:09:03;4.50;;;2.60;;
61709;SDS011;47633;51.494;5.386;2023-02-08T10:20:18;4.80;;;2.60;;
61709;SDS011;47633;51.494;5.386;2023-02-08T10:28:25;4.78;;;2.35;;
61709;SDS011;47633;51.494;5.386;2023-02-08T10:30:56;5.70;;;2.80;;
61709;SDS011;47633;51.494;5.386;2023-02-08T10:36:24;4.95;;;2.83;;
61709;SDS011;47633;51.494;5.386;2023-02-08T10:38:55;5.45;;;2.83;;
61709;SDS011;47633;51.494;5.386;2023-02-08T10:41:24;4.88;;;2.75;;
61709;SDS011;47633;51.494;5.386;2023-02-08T10:43:56;6.63;;;3.28;;
61709;SDS011;47633;51.494;5.386;2023-02-08T10:46:38;7.32;;;2.78;;
61709;SDS011;47633;51.494;5.386;2023-02-08T10:52:19;5.70;;;3.30;;
61709;SDS011;47633;51.494;5.386;2023-02-08T10:54:44;6.22;;;2.90;;
61709;SDS011;47633;51.494;5.386;2023-02-08T10:57:21;6.13;;;2.78;;
61709;SDS011;47633;51.494;5.386;2023-02-08T10:59:50;6.47;;;2.75;;
61709;SDS011;47633;51.494;5.386;2023-02-08T11:02:20;5.70;;;2.78;;
61709;SDS011;47633;51.494;5.386;2023-02-08T11:04:56;6.57;;;2.92;;
61709;SDS011;47633;51.494;5.386;2023-02-08T11:07:33;5.33;;;2.90;;
61709;SDS011;47633;51.494;5.386;2023-02-08T11:12:39;5.95;;;2.70;;
61709;SDS011;47633;51.494;5.386;2023-02-08T11:15:15;7.30;;;3.03;;
61709;SDS011;47633;51.494;5.386;2023-02-08T11:17:46;5.82;;;2.88;;
61709;SDS011;47633;51.494;5.386;2023-02-08T11:20:28;5.88;;;2.97;;
61709;SDS011;47633;51.494;5.386;2023-02-08T11:23:00;5.03;;;2.70;;
61709;SDS011;47633;51.494;5.386;2023-02-08T11:25:45;6.13;;;2.70;;
61709;SDS011;47633;51.494;5.386;2023-02-08T11:28:21;4.00;;;2.20;;
61709;SDS011;47633;51.494;5.386;2023-02-08T11:30:59;5.38;;;2.75;;
61709;SDS011;47633;51.494;5.386;2023-02-08T11:33:26;5.35;;;3.10;;
61709;SDS011;47633;51.494;5.386;2023-02-08T11:35:57;5.35;;;3.00;;
61709;SDS011;47633;51.494;5.386;2023-02-08T11:38:25;8.60;;;3.25;;
61709;SDS011;47633;51.494;5.386;2023-02-08T11:40:52;6.25;;;3.20;;
61709;SDS011;47633;51.494;5.386;2023-02-08T11:43:30;5.53;;;2.83;;
61709;SDS011;47633;51.494;5.386;2023-02-08T11:45:57;6.57;;;3.10;;
61709;SDS011;47633;51.494;5.386;2023-02-08T11:48:36;5.80;;;2.60;;
61709;SDS011;47633;51.494;5.386;2023-02-08T11:51:06;5.70;;;2.78;;
61709;SDS011;47633;51.494;5.386;2023-02-08T11:53:35;5.82;;;2.33;;
61709;SDS011;47633;51.494;5.386;2023-02-08T11:56:05;5.45;;;2.42;;
61709;SDS011;47633;51.494;5.386;2023-02-08T11:58:32;4.82;;;2.45;;
61709;SDS011;47633;51.494;5.386;2023-02-08T12:01:00;5.63;;;2.53;;
61709;SDS011;47633;51.494;5.386;2023-02-08T12:03:35;5.57;;;2.78;;
61709;SDS011;47633;51.494;5.386;2023-02-08T12:09:01;7.18;;;2.97;;
61709;SDS011;47633;51.494;5.386;2023-02-08T12:17:19;5.03;;;2.50;;
61709;SDS011;47633;51.494;5.386;2023-02-08T12:22:54;5.20;;;2.53;;
61709;SDS011;47633;51.494;5.386;2023-02-08T12:25:45;7.22;;;2.92;;
61709;SDS011;47633;51.494;5.386;2023-02-08T12:37:25;7.63;;;3.08;;
61709;SDS011;47633;51.494;5.386;2023-02-08T12:46:37;5.95;;;3.08;;
61709;SDS011;47633;51.494;5.386;2023-02-08T12:54:28;6.88;;;2.60;;
61709;SDS011;47633;51.494;5.386;2023-02-08T12:57:14;5.72;;;2.35;;
61709;SDS011;47633;51.494;5.386;2023-02-08T12:59:44;5.45;;;2.47;;
61709;SDS011;47633;51.494;5.386;2023-02-08T13:02:22;6.65;;;2.55;;
61709;SDS011;47633;51.494;5.386;2023-02-08T13:04:54;5.68;;;2.65;;
61709;SDS011;47633;51.494;5.386;2023-02-08T13:07:28;5.00;;;2.42;;
61709;SDS011;47633;51.494;5.386;2023-02-08T13:12:31;4.60;;;2.10;;
61709;SDS011;47633;51.494;5.386;2023-02-08T13:20:44;5.35;;;2.55;;
61709;SDS011;47633;51.494;5.386;2023-02-08T13:23:17;4.40;;;2.20;;
61709;SDS011;47633;51.494;5.386;2023-02-08T13:25:43;4.43;;;2.30;;
61709;SDS011;47633;51.494;5.386;2023-02-08T13:28:11;4.55;;;2.13;;
61709;SDS011;47633;51.494;5.386;2023-02-08T13:30:43;6.93;;;2.13;;
61709;SDS011;47633;51.494;5.386;2023-02-08T13:33:17;4.28;;;2.38;;
61709;SDS011;47633;51.494;5.386;2023-02-08T13:35:49;5.50;;;2.38;;
61709;SDS011;47633;51.494;5.386;2023-02-08T13:41:03;4.70;;;2.15;;
61709;SDS011;47633;51.494;5.386;2023-02-08T13:43:40;4.38;;;2.10;;
61709;SDS011;47633;51.494;5.386;2023-02-08T13:46:13;4.95;;;2.58;;
61709;SDS011;47633;51.494;5.386;2023-02-08T13:48:46;5.07;;;2.20;;
61709;SDS011;47633;51.494;5.386;2023-02-08T13:59:31;5.53;;;3.67;;
61709;SDS011;47633;51.494;5.386;2023-02-08T14:04:51;8.25;;;3.28;;
61709;SDS011;47633;51.494;5.386;2023-02-08T14:10:04;5.60;;;2.58;;
61709;SDS011;47633;51.494;5.386;2023-02-08T14:12:55;5.00;;;2.40;;
61709;SDS011;47633;51.494;5.386;2023-02-08T14:15:26;4.60;;;2.10;;
61709;SDS011;47633;51.494;5.386;2023-02-08T14:17:54;4.00;;;1.80;;
61709;SDS011;47633;51.494;5.386;2023-02-08T14:20:30;5.38;;;2.00;;
61709;SDS011;47633;51.494;5.386;2023-02-08T14:23:01;5.43;;;2.10;;
61709;SDS011;47633;51.494;5.386;2023-02-08T14:25:29;5.65;;;2.28;;
61709;SDS011;47633;51.494;5.386;2023-02-08T14:28:04;5.22;;;2.30;;
61709;SDS011;47633;51.494;5.386;2023-02-08T14:30:45;4.20;;;2.08;;
61709;SDS011;47633;51.494;5.386;2023-02-08T14:33:17;7.38;;;3.05;;
61709;SDS011;47633;51.494;5.386;2023-02-08T14:35:53;6.55;;;2.28;;
61709;SDS011;47633;51.494;5.386;2023-02-08T14:40:51;6.33;;;2.27;;
61709;SDS011;47633;51.494;5.386;2023-02-08T14:43:34;4.82;;;2.15;;
61709;SDS011;47633;51.494;5.386;2023-02-08T14:49:14;3.88;;;2.10;;
61709;SDS011;47633;51.494;5.386;2023-02-08T14:54:52;3.92;;;2.00;;
61709;SDS011;47633;51.494;5.386;2023-02-08T14:57:03;4.68;;;2.30;;
61709;SDS011;47633;51.494;5.386;2023-02-08T14:59:32;4.18;;;2.10;;
61709;SDS011;47633;51.494;5.386;2023-02-08T15:02:00;6.30;;;2.45;;
61709;SDS011;47633;51.494;5.386;2023-02-08T15:04:27;5.28;;;2.10;;
61709;SDS011;47633;51.494;5.386;2023-02-08T15:09:28;4.50;;;1.90;;
61709;SDS011;47633;51.494;5.386;2023-02-08T15:12:03;3.78;;;1.80;;
61709;SDS011;47633;51.494;5.386;2023-02-08T15:14:33;5.85;;;2.10;;
61709;SDS011;47633;51.494;5.386;2023-02-08T15:17:00;3.90;;;1.80;;
61709;SDS011;47633;51.494;5.386;2023-02-08T15:19:28;5.05;;;1.80;;
61709;SDS011;47633;51.494;5.386;2023-02-08T15:24:49;3.97;;;1.95;;
61709;SDS011;47633;51.494;5.386;2023-02-08T15:27:18;4.47;;;2.10;;
61709;SDS011;47633;51.494;5.386;2023-02-08T15:29:45;7.28;;;2.25;;
61709;SDS011;47633;51.494;5.386;2023-02-08T15:32:11;4.15;;;1.85;;
61709;SDS011;47633;51.494;5.386;2023-02-08T15:34:42;5.03;;;1.88;;
61709;SDS011;47633;51.494;5.386;2023-02-08T15:37:14;5.78;;;1.92;;
61709;SDS011;47633;51.494;5.386;2023-02-08T15:39:41;3.80;;;1.73;;
61709;SDS011;47633;51.494;5.386;2023-02-08T15:42:41;5.82;;;2.10;;
61709;SDS011;47633;51.494;5.386;2023-02-08T15:44:58;4.93;;;2.05;;
61709;SDS011;47633;51.494;5.386;2023-02-08T15:47:27;4.20;;;1.67;;
61709;SDS011;47633;51.494;5.386;2023-02-08T15:49:56;4.15;;;1.67;;
61709;SDS011;47633;51.494;5.386;2023-02-08T15:52:23;10.85;;;2.92;;
61709;SDS011;47633;51.494;5.386;2023-02-08T15:54:51;8.75;;;3.17;;
61709;SDS011;47633;51.494;5.386;2023-02-08T15:59:57;9.90;;;3.45;;
61709;SDS011;47633;51.494;5.386;2023-02-08T16:02:26;10.05;;;3.30;;
61709;SDS011;47633;51.494;5.386;2023-02-08T16:04:53;8.30;;;3.03;;
61709;SDS011;47633;51.494;5.386;2023-02-08T16:07:24;9.02;;;3.10;;
61709;SDS011;47633;51.494;5.386;2023-02-08T16:09:53;9.68;;;3.50;;
61709;SDS011;47633;51.494;5.386;2023-02-08T16:12:21;7.82;;;2.78;;
61709;SDS011;47633;51.494;5.386;2023-02-08T16:14:48;8.15;;;3.05;;
61709;SDS011;47633;51.494;5.386;2023-02-08T16:17:30;10.27;;;3.00;;
61709;SDS011;47633;51.494;5.386;2023-02-08T16:20:27;8.88;;;2.70;;
61709;SDS011;47633;51.494;5.386;2023-02-08T16:25:54;9.32;;;2.97;;
61709;SDS011;47633;51.494;5.386;2023-02-08T16:28:26;8.30;;;2.72;;
61709;SDS011;47633;51.494;5.386;2023-02-08T16:30:54;8.02;;;3.30;;
61709;SDS011;47633;51.494;5.386;2023-02-08T16:33:22;8.02;;;2.78;;
61709;SDS011;47633;51.494;5.386;2023-02-08T16:35:48;7.05;;;2.63;;
61709;SDS011;47633;51.494;5.386;2023-02-08T16:38:17;9.15;;;2.67;;
61709;SDS011;47633;51.494;5.386;2023-02-08T16:40:49;7.50;;;2.60;;
61709;SDS011;47633;51.494;5.386;2023-02-08T16:43:26;6.65;;;2.50;;
61709;SDS011;47633;51.494;5.386;2023-02-08T16:48:49;7.57;;;2.40;;
61709;SDS011;47633;51.494;5.386;2023-02-08T16:51:34;6.63;;;2.63;;
61709;SDS011;47633;51.494;5.386;2023-02-08T16:54:02;7.68;;;2.78;;
61709;SDS011;47633;51.494;5.386;2023-02-08T16:56:33;6.53;;;2.83;;
61709;SDS011;47633;51.494;5.386;2023-02-08T16:58:59;5.18;;;2.28;;
61709;SDS011;47633;51.494;5.386;2023-02-08T17:01:25;6.97;;;2.50;;
61709;SDS011;47633;51.494;5.386;2023-02-08T17:03:50;7.20;;;2.50;;
61709;SDS011;47633;51.494;5.386;2023-02-08T17:06:30;5.95;;;2.50;;
61709;SDS011;47633;51.494;5.386;2023-02-08T17:08:58;7.05;;;2.22;;
61709;SDS011;47633;51.494;5.386;2023-02-08T17:11:25;4.90;;;2.38;;
61709;SDS011;47633;51.494;5.386;2023-02-08T17:13:51;5.85;;;2.50;;
61709;SDS011;47633;51.494;5.386;2023-02-08T17:16:18;7.30;;;2.70;;
61709;SDS011;47633;51.494;5.386;2023-02-08T17:18:46;5.68;;;2.40;;
61709;SDS011;47633;51.494;5.386;2023-02-08T17:21:11;6.38;;;2.60;;
61709;SDS011;47633;51.494;5.386;2023-02-08T17:23:37;6.25;;;2.38;;
61709;SDS011;47633;51.494;5.386;2023-02-08T17:26:08;6.43;;;2.50;;
61709;SDS011;47633;51.494;5.386;2023-02-08T17:28:36;8.27;;;2.75;;
61709;SDS011;47633;51.494;5.386;2023-02-08T17:31:02;5.38;;;2.22;;